createdAt,value
2022-08-22T00:00:52.786Z,97.77
2022-08-22T00:01:52.824Z,97.87
2022-08-22T00:02:48.505Z,92.14
2022-08-22T00:02:54.492Z,96.06
2022-08-22T00:03:09.033Z,96.26
2022-08-22T00:03:15.374Z,98.02
2022-08-22T00:03:53.771Z,98.32
2022-08-22T00:04:55.759Z,98.22
2022-08-22T00:05:52.750Z,97.81
2022-08-22T00:06:52.729Z,97.61
2022-08-22T00:07:52.808Z,97.61
2022-08-22T00:08:52.788Z,97.92
2022-08-22T00:09:52.700Z,97.81
2022-08-22T00:10:52.689Z,97.92
2022-08-22T00:11:52.682Z,98.12
2022-08-22T00:12:52.714Z,98.22
2022-08-22T00:13:56.677Z,98.12
2022-08-22T00:14:52.643Z,98.12
2022-08-22T00:15:52.659Z,98.12
2022-08-22T00:16:53.453Z,98.22
2022-08-22T00:17:52.663Z,98.32
2022-08-22T00:18:52.602Z,98.32
2022-08-22T00:19:55.601Z,98.47
2022-08-22T00:20:52.623Z,98.68
2022-08-22T00:21:52.611Z,98.88
2022-08-22T00:22:52.574Z,98.77
2022-08-22T00:23:52.551Z,98.68
2022-08-22T00:24:52.544Z,98.68
2022-08-22T00:25:54.193Z,98.68
2022-08-22T00:26:52.552Z,98.57
2022-08-22T00:27:52.512Z,98.47
2022-08-22T00:28:52.538Z,98.27
2022-08-22T00:29:52.508Z,98.16
2022-08-22T00:30:52.485Z,98.07
2022-08-22T00:31:52.500Z,98.57
2022-08-22T00:32:52.465Z,98.47
2022-08-22T00:33:52.454Z,98.27
2022-08-22T00:34:55.435Z,98.16
2022-08-22T00:35:52.446Z,98.16
2022-08-22T00:36:52.430Z,98.37
2022-08-22T00:37:52.455Z,98.16
2022-08-22T00:38:52.396Z,98.07
2022-08-22T00:39:52.461Z,97.96
2022-08-22T00:40:52.371Z,97.61
2022-08-22T01:42:51.204Z,98.57
2022-08-22T01:45:26.901Z,99.08
2022-08-22T01:46:26.892Z,99.38
2022-08-22T01:47:26.871Z,99.49
2022-08-22T01:51:54.857Z,99.99
2022-08-22T01:58:28.538Z,99.69
2022-08-22T01:59:34.044Z,99.69
2022-08-22T02:00:34.756Z,99.69
2022-08-22T02:01:28.569Z,99.89
2022-08-22T02:02:28.452Z,99.69
2022-08-22T02:03:28.452Z,99.49
2022-08-22T02:04:28.430Z,99.49
2022-08-22T02:05:28.422Z,99.38
2022-08-22T02:06:28.412Z,99.28
2022-08-22T02:09:53.345Z,98.97
2022-08-22T02:13:18.187Z,98.97
2022-08-22T02:14:18.147Z,98.88
2022-08-22T02:17:58.850Z,98.88
2022-08-22T02:18:58.758Z,99.02
2022-08-22T02:19:58.762Z,99.13
2022-08-22T02:44:23.342Z,99.02
2022-08-22T02:45:23.330Z,99.13
2022-08-22T02:46:23.311Z,99.02
2022-08-22T02:47:23.293Z,99.02
2022-08-22T02:48:23.280Z,98.62
2022-08-22T02:49:23.259Z,98.72
2022-08-22T02:50:23.285Z,98.62
2022-08-22T02:51:23.271Z,98.66
2022-08-22T02:52:23.236Z,98.77
2022-08-22T02:53:23.221Z,99.07
2022-08-22T02:54:23.223Z,99.27
2022-08-22T02:55:23.202Z,99.68
2022-08-22T02:56:23.218Z,99.99
2022-08-22T02:57:26.289Z,99.99
2022-08-22T02:58:23.185Z,99.99
2022-08-22T02:59:23.165Z,99.58
2022-08-22T03:00:31.107Z,99.27
2022-08-22T03:01:23.157Z,98.97
2022-08-22T03:02:23.175Z,99.07
2022-08-22T03:03:23.114Z,99.17
2022-08-22T03:07:19.476Z,99.68
2022-08-22T03:08:26.505Z,99.68
2022-08-22T03:09:19.458Z,99.58
2022-08-22T03:11:57.125Z,99.42
2022-08-22T03:13:04.111Z,99.22
2022-08-22T03:14:04.204Z,98.91
2022-08-22T03:16:50.489Z,98.91
2022-08-22T03:17:50.466Z,99.22
2022-08-22T03:18:50.466Z,99.42
2022-08-22T03:19:50.506Z,99.52
2022-08-22T03:33:13.641Z,99.16
2022-08-22T03:34:13.612Z,99.06
2022-08-22T03:35:13.595Z,99.06
2022-08-22T03:36:13.583Z,99.16
2022-08-22T03:37:13.594Z,99.47
2022-08-22T03:38:13.562Z,99.37
2022-08-22T03:39:17.083Z,98.96
2022-08-22T03:40:13.598Z,99.06
2022-08-22T03:41:13.533Z,99.11
2022-08-22T03:42:13.544Z,99.01
2022-08-22T03:43:13.530Z,98.91
2022-08-22T03:44:13.509Z,98.91
2022-08-22T03:45:13.494Z,99.21
2022-08-22T03:46:17.848Z,99.31
2022-08-22T03:47:13.497Z,99.52
2022-08-22T03:48:13.485Z,99.72
2022-08-22T03:49:13.485Z,99.82
2022-08-22T03:50:13.436Z,99.72
2022-08-22T03:51:13.424Z,99.21
2022-08-22T03:52:13.420Z,99.72
2022-08-22T03:53:15.452Z,99.41
2022-08-22T03:54:13.394Z,98.91
2022-08-22T03:55:13.391Z,98.80
2022-08-22T03:56:13.389Z,98.85
2022-08-22T03:57:13.368Z,99.26
2022-08-22T03:58:16.325Z,99.56
2022-08-22T03:59:13.302Z,99.66
2022-08-22T04:00:13.281Z,99.77
2022-08-22T04:01:16.336Z,99.99
2022-08-22T04:02:42.134Z,99.99
2022-08-22T04:03:14.269Z,99.99
2022-08-22T04:04:13.237Z,99.87
2022-08-22T04:05:13.232Z,99.66
2022-08-22T04:06:13.210Z,99.66
2022-08-22T04:07:28.033Z,99.56
2022-08-22T04:08:14.192Z,99.46
2022-08-22T04:09:13.190Z,99.36
2022-08-22T04:10:13.181Z,99.46
2022-08-22T04:11:13.168Z,99.46
2022-08-22T04:12:13.160Z,99.81
2022-08-22T04:13:13.144Z,99.99
2022-08-22T04:14:13.144Z,99.99
2022-08-22T04:15:13.143Z,99.99
2022-08-22T04:16:16.102Z,99.99
2022-08-22T04:17:13.114Z,99.91
2022-08-22T04:18:13.083Z,99.91
2022-08-22T04:19:13.084Z,99.99
2022-08-22T04:20:13.102Z,99.91
2022-08-22T04:21:13.066Z,99.91
2022-08-22T04:22:13.054Z,99.99
2022-08-22T04:23:13.041Z,99.91
2022-08-22T04:24:13.027Z,99.61
2022-08-22T04:25:13.017Z,99.10
2022-08-22T04:26:13.021Z,99.10
2022-08-22T04:27:13.010Z,99.41
2022-08-22T04:28:12.986Z,99.81
2022-08-22T04:29:12.977Z,99.99
2022-08-22T04:30:12.969Z,99.81
2022-08-22T04:31:15.997Z,99.91
2022-08-22T04:32:14.763Z,99.99
2022-08-22T04:33:12.946Z,99.99
2022-08-22T04:34:12.937Z,99.96
2022-08-22T04:35:12.953Z,99.76
2022-08-22T04:36:12.897Z,99.55
2022-08-22T04:37:12.898Z,99.66
2022-08-22T04:38:12.971Z,99.55
2022-08-22T04:39:12.891Z,99.45
2022-08-22T04:40:12.903Z,99.55
2022-08-22T04:41:12.861Z,99.55
2022-08-22T04:42:31.633Z,99.55
2022-08-22T04:43:13.834Z,99.96
2022-08-22T04:44:13.425Z,99.99
2022-08-22T04:45:12.841Z,99.99
2022-08-22T04:46:15.800Z,99.99
2022-08-22T04:47:12.816Z,99.99
2022-08-22T04:48:12.771Z,99.99
2022-08-22T04:49:12.775Z,99.99
2022-08-22T04:50:12.761Z,99.99
2022-08-22T04:51:12.772Z,99.99
2022-08-22T04:52:12.734Z,99.99
2022-08-22T04:53:12.743Z,99.96
2022-08-22T04:54:12.715Z,99.76
2022-08-22T04:55:12.713Z,99.86
2022-08-22T04:56:12.740Z,99.86
2022-08-22T04:57:12.691Z,99.99
2022-08-22T04:58:12.671Z,99.99
2022-08-22T04:59:12.665Z,99.99
2022-08-22T05:00:12.655Z,99.99
2022-08-22T05:01:15.722Z,99.99
2022-08-22T05:02:12.657Z,99.96
2022-08-22T05:03:12.635Z,99.66
2022-08-22T05:04:12.614Z,99.25
2022-08-22T05:05:13.812Z,99.25
2022-08-22T05:06:12.587Z,99.55
2022-08-22T05:07:12.581Z,99.76
2022-08-22T05:08:12.589Z,99.66
2022-08-22T05:09:16.051Z,99.66
2022-08-22T05:10:12.718Z,99.66
2022-08-22T05:11:12.535Z,99.55
2022-08-22T05:12:12.527Z,99.99
2022-08-22T05:13:12.540Z,99.99
2022-08-22T05:14:12.509Z,99.99
2022-08-22T05:15:12.497Z,99.99
2022-08-22T05:16:15.495Z,99.99
2022-08-22T05:17:12.482Z,99.99
2022-08-22T05:18:12.484Z,99.99
2022-08-22T05:19:16.418Z,99.99
2022-08-22T05:20:13.440Z,99.99
2022-08-22T05:21:13.921Z,99.99
2022-08-22T05:22:12.440Z,99.99
2022-08-22T05:23:16.991Z,99.99
2022-08-22T05:24:12.391Z,99.99
2022-08-22T05:25:12.401Z,99.99
2022-08-22T05:26:12.375Z,99.99
2022-08-22T05:27:12.367Z,99.99
2022-08-22T05:28:12.390Z,99.99
2022-08-22T05:29:12.352Z,99.99
2022-08-22T05:30:12.332Z,99.99
2022-08-22T05:31:15.335Z,99.99
2022-08-22T05:32:12.323Z,99.99
2022-08-22T05:33:12.304Z,99.99
2022-08-22T05:34:12.356Z,99.99
2022-08-22T05:35:12.303Z,99.99
2022-08-22T05:36:12.345Z,99.99
2022-08-22T05:37:12.254Z,99.99
2022-08-22T05:38:12.256Z,99.99
2022-08-22T05:39:12.310Z,99.99
2022-08-22T05:40:12.341Z,99.99
2022-08-22T05:41:12.296Z,99.99
2022-08-22T05:42:12.247Z,99.99
2022-08-22T05:43:12.195Z,99.99
2022-08-22T05:44:12.228Z,99.99
2022-08-22T05:45:12.469Z,99.99
2022-08-22T05:46:15.191Z,99.99
2022-08-22T05:47:12.167Z,99.99
2022-08-22T05:48:12.138Z,99.99
2022-08-22T05:49:12.129Z,99.99
2022-08-22T05:50:12.128Z,99.99
2022-08-22T05:51:12.128Z,99.99
2022-08-22T05:52:12.100Z,99.99
2022-08-22T05:53:12.102Z,99.99
2022-08-22T05:54:12.071Z,99.99
2022-08-22T05:55:12.084Z,99.99
2022-08-22T05:56:12.096Z,99.99
2022-08-22T05:57:12.040Z,99.99
2022-08-22T05:58:12.030Z,99.99
2022-08-22T05:59:12.031Z,99.99
2022-08-22T06:00:12.010Z,99.99
2022-08-22T06:01:15.042Z,99.99
2022-08-22T06:02:12.040Z,99.99
2022-08-22T06:03:11.982Z,99.99
2022-08-22T06:04:11.970Z,99.99
2022-08-22T06:05:12.270Z,99.99
2022-08-22T06:06:11.949Z,99.99
2022-08-22T06:07:11.932Z,99.99
2022-08-22T06:08:11.922Z,99.99
2022-08-22T06:09:11.913Z,99.99
2022-08-22T06:10:11.946Z,99.99
2022-08-22T06:11:11.896Z,99.99
2022-08-22T06:12:21.892Z,99.99
2022-08-22T06:13:11.920Z,99.99
2022-08-22T06:14:13.002Z,99.99
2022-08-22T06:15:12.536Z,99.99
2022-08-22T06:16:14.846Z,99.99
2022-08-22T06:17:11.849Z,99.99
2022-08-22T06:18:11.810Z,99.99
2022-08-22T06:19:19.925Z,99.99
2022-08-22T06:20:11.796Z,99.99
2022-08-22T06:21:11.834Z,99.99
2022-08-22T06:22:11.802Z,99.99
2022-08-22T06:23:11.774Z,99.99
2022-08-22T06:24:11.758Z,99.99
2022-08-22T06:25:11.747Z,99.99
2022-08-22T06:26:21.122Z,99.99
2022-08-22T06:27:11.727Z,99.99
2022-08-22T06:28:11.718Z,99.99
2022-08-22T06:29:11.700Z,99.99
2022-08-22T06:30:11.692Z,99.99
2022-08-22T06:31:14.683Z,99.99
2022-08-22T06:32:11.720Z,99.99
2022-08-22T06:33:12.403Z,99.99
2022-08-22T06:34:11.640Z,99.99
2022-08-22T06:35:11.641Z,99.99
2022-08-22T06:36:11.628Z,99.99
2022-08-22T06:37:11.621Z,99.99
2022-08-22T06:38:11.603Z,99.99
2022-08-22T06:39:11.595Z,99.99
2022-08-22T06:40:11.651Z,99.99
2022-08-22T06:41:11.571Z,99.99
2022-08-22T06:42:15.977Z,99.99
2022-08-22T06:43:11.577Z,99.99
2022-08-22T06:44:11.545Z,99.99
2022-08-22T06:45:11.565Z,99.99
2022-08-22T06:46:14.524Z,99.99
2022-08-22T06:47:11.525Z,99.99
2022-08-22T06:48:11.509Z,99.99
2022-08-22T06:49:11.494Z,99.99
2022-08-22T06:50:13.617Z,99.99
2022-08-22T06:51:11.465Z,99.99
2022-08-22T06:52:11.461Z,99.99
2022-08-22T06:53:11.452Z,99.99
2022-08-22T06:54:11.442Z,99.99
2022-08-22T06:55:11.443Z,99.99
2022-08-22T06:56:11.436Z,99.99
2022-08-22T06:57:11.414Z,99.99
2022-08-22T06:58:11.394Z,99.99
2022-08-22T06:59:11.388Z,99.99
2022-08-22T07:00:11.398Z,99.99
2022-08-22T07:01:14.475Z,99.99
2022-08-22T07:02:11.369Z,98.76
2022-08-22T07:03:11.350Z,97.10
2022-08-22T07:04:11.330Z,95.79
2022-08-22T07:05:11.350Z,93.93
2022-08-22T07:06:11.311Z,92.98
2022-08-22T07:07:11.308Z,92.33
2022-08-22T07:08:11.292Z,91.73
2022-08-22T07:09:11.279Z,91.38
2022-08-22T07:10:11.294Z,90.53
2022-08-22T07:11:11.273Z,89.69
2022-08-22T07:12:11.278Z,88.43
2022-08-22T07:13:11.250Z,85.82
2022-08-22T07:14:11.235Z,84.57
2022-08-22T07:15:11.211Z,84.27
2022-08-22T07:16:14.206Z,83.83
2022-08-22T07:17:11.232Z,82.28
2022-08-22T07:18:11.185Z,81.54
2022-08-22T07:19:11.172Z,81.34
2022-08-22T07:20:11.167Z,81.20
2022-08-22T07:21:11.168Z,79.49
2022-08-22T07:22:11.251Z,77.69
2022-08-22T07:23:11.135Z,79.16
2022-08-22T07:24:11.126Z,76.21
2022-08-22T07:25:11.127Z,77.51
2022-08-22T07:26:11.105Z,76.57
2022-08-22T07:27:11.096Z,76.84
2022-08-22T07:28:16.136Z,76.30
2022-08-22T07:29:11.558Z,73.50
2022-08-22T07:30:11.073Z,73.90
2022-08-22T07:31:15.048Z,73.10
2022-08-22T07:32:11.087Z,74.56
2022-08-22T07:33:25.769Z,73.93
2022-08-22T07:34:12.010Z,72.03
2022-08-22T07:35:11.016Z,71.42
2022-08-22T07:36:10.989Z,71.83
2022-08-22T07:37:11.021Z,73.72
2022-08-22T07:38:10.981Z,72.59
2022-08-22T07:39:11.193Z,71.96
2022-08-22T07:40:11.048Z,70.66
2022-08-22T07:41:10.971Z,73.12
2022-08-22T07:42:10.942Z,70.79
2022-08-22T07:43:10.929Z,70.65
2022-08-22T07:44:10.921Z,68.56
2022-08-22T07:45:10.933Z,68.23
2022-08-22T07:46:13.903Z,69.53
2022-08-22T07:47:10.903Z,68.79
2022-08-22T07:48:10.885Z,67.70
2022-08-22T07:49:11.879Z,69.16
2022-08-22T07:51:48.737Z,65.67
2022-08-22T07:52:48.489Z,66.17
2022-08-22T07:53:48.487Z,67.50
2022-08-22T07:54:48.479Z,68.79
2022-08-22T07:55:49.655Z,68.86
2022-08-22T07:59:30.092Z,66.14
2022-08-22T08:00:30.052Z,64.64
2022-08-22T08:01:30.077Z,65.05
2022-08-22T08:04:07.682Z,65.51
2022-08-22T08:05:07.630Z,64.98
2022-08-22T08:06:14.632Z,62.62
2022-08-22T08:07:07.601Z,65.17
2022-08-22T08:10:01.035Z,65.08
2022-08-22T08:12:22.833Z,65.77
2022-08-22T08:13:29.827Z,67.93
2022-08-22T08:16:17.216Z,63.19
2022-08-22T08:19:42.036Z,63.53
2022-08-22T08:20:42.029Z,61.83
2022-08-22T08:23:03.897Z,62.16
2022-08-22T08:25:41.523Z,63.33
2022-08-22T08:31:49.536Z,63.95
2022-08-22T08:32:59.680Z,62.46
2022-08-22T08:33:56.647Z,62.92
2022-08-22T08:39:50.358Z,61.85
2022-08-22T08:40:57.292Z,62.12
2022-08-22T08:41:50.270Z,59.91
2022-08-22T08:42:57.281Z,60.89
2022-08-22T08:43:57.292Z,61.59
2022-08-22T08:44:57.382Z,59.97
2022-08-22T08:45:59.246Z,60.05
2022-08-22T08:48:12.114Z,58.23
2022-08-22T08:49:21.007Z,57.34
2022-08-22T08:50:19.634Z,56.65
2022-08-22T08:51:19.079Z,57.84
2022-08-22T08:52:12.323Z,57.86
2022-08-22T08:53:12.060Z,59.94
2022-08-22T08:54:12.059Z,59.05
2022-08-22T08:55:22.571Z,58.95
2022-08-22T08:56:12.073Z,58.16
2022-08-22T08:57:12.013Z,61.33
2022-08-22T08:58:12.000Z,58.95
2022-08-22T08:59:11.992Z,58.09
2022-08-22T09:00:12.287Z,58.09
2022-08-22T09:01:15.056Z,60.67
2022-08-22T09:02:13.750Z,60.37
2022-08-22T09:03:11.967Z,58.98
2022-08-22T09:04:14.951Z,58.88
2022-08-22T09:05:11.940Z,58.98
2022-08-22T09:06:11.910Z,59.21
2022-08-22T09:07:11.905Z,58.48
2022-08-22T09:08:12.003Z,58.88
2022-08-22T09:09:11.908Z,61.83
2022-08-22T09:10:11.867Z,59.18
2022-08-22T09:11:12.096Z,58.75
2022-08-22T09:12:11.849Z,59.05
2022-08-22T09:13:12.974Z,59.92
2022-08-22T09:14:11.846Z,58.86
2022-08-22T09:15:14.226Z,60.05
2022-08-22T09:16:14.831Z,60.05
2022-08-22T09:17:11.817Z,61.04
2022-08-22T09:18:11.791Z,60.34
2022-08-22T09:19:11.779Z,61.60
2022-08-22T09:20:17.539Z,61.18
2022-08-22T09:21:11.831Z,59.89
2022-08-22T09:22:14.576Z,59.39
2022-08-22T09:23:11.742Z,60.35
2022-08-22T09:24:11.755Z,59.46
2022-08-22T09:25:11.731Z,56.69
2022-08-22T09:26:11.723Z,54.64
2022-08-22T09:28:11.680Z,57.02
2022-08-22T09:29:11.665Z,56.72
2022-08-22T09:30:11.938Z,57.31
2022-08-22T09:31:16.928Z,57.78
2022-08-22T09:32:12.973Z,58.37
2022-08-22T09:33:11.627Z,58.07
2022-08-22T09:34:11.611Z,58.64
2022-08-22T09:35:11.596Z,57.35
2022-08-22T09:36:12.392Z,57.26
2022-08-22T09:38:11.597Z,56.10
2022-08-22T09:39:11.571Z,55.60
2022-08-22T09:41:11.530Z,56.37
2022-08-22T09:43:11.528Z,55.80
2022-08-22T09:44:12.088Z,56.59
2022-08-22T09:45:11.496Z,56.42
2022-08-22T09:46:14.488Z,57.02
2022-08-22T09:47:11.510Z,58.11
2022-08-22T09:48:11.485Z,57.02
2022-08-22T09:49:11.485Z,57.31
2022-08-22T09:50:11.462Z,57.21
2022-08-22T09:51:31.664Z,57.18
2022-08-22T09:52:15.646Z,56.59
2022-08-22T09:53:12.474Z,57.58
2022-08-22T09:54:11.407Z,57.46
2022-08-22T09:55:15.875Z,57.46
2022-08-22T09:56:15.338Z,56.46
2022-08-22T09:57:14.028Z,57.06
2022-08-22T09:58:11.606Z,57.75
2022-08-22T09:59:11.347Z,57.26
2022-08-22T10:00:11.353Z,57.23
2022-08-22T10:01:14.364Z,57.33
2022-08-22T10:02:15.709Z,58.32
2022-08-22T10:03:11.308Z,56.63
2022-08-22T10:04:11.299Z,57.10
2022-08-22T10:05:11.309Z,58.00
2022-08-22T10:06:12.283Z,55.43
2022-08-22T10:07:12.202Z,55.72
2022-08-22T10:08:11.550Z,57.47
2022-08-22T10:09:11.253Z,56.19
2022-08-22T10:10:11.375Z,55.99
2022-08-22T10:11:11.262Z,55.69
2022-08-22T10:12:12.260Z,54.90
2022-08-22T10:13:11.203Z,55.30
2022-08-22T10:14:11.192Z,53.35
2022-08-22T10:15:12.183Z,54.24
2022-08-22T10:16:14.197Z,56.63
2022-08-22T10:17:11.218Z,56.12
2022-08-22T10:18:11.154Z,54.83
2022-08-22T10:19:11.154Z,54.93
2022-08-22T10:20:11.144Z,54.44
2022-08-22T10:21:11.116Z,54.93
2022-08-22T10:22:11.124Z,55.62
2022-08-22T10:23:11.322Z,54.24
2022-08-22T10:24:11.089Z,51.50
2022-08-22T10:25:12.076Z,51.30
2022-08-22T10:26:11.068Z,52.69
2022-08-22T10:27:11.068Z,53.47
2022-08-22T10:28:11.148Z,53.05
2022-08-22T10:29:11.057Z,52.98
2022-08-22T10:30:11.028Z,51.89
2022-08-22T10:31:14.010Z,51.40
2022-08-22T10:32:14.604Z,51.00
2022-08-22T10:33:12.188Z,49.02
2022-08-22T10:34:10.981Z,49.72
2022-08-22T10:35:10.973Z,51.13
2022-08-22T10:36:12.026Z,50.41
2022-08-22T10:37:10.952Z,49.22
2022-08-22T10:38:10.956Z,50.21
2022-08-22T10:39:11.894Z,50.16
2022-08-22T10:40:11.059Z,51.37
2022-08-22T10:41:10.914Z,51.10
2022-08-22T10:42:10.897Z,51.72
2022-08-22T10:43:10.902Z,52.71
2022-08-22T10:44:11.002Z,52.98
2022-08-22T10:45:10.878Z,52.69
2022-08-22T10:46:14.909Z,53.28
2022-08-22T10:47:10.866Z,52.56
2022-08-22T10:48:10.837Z,51.45
2022-08-22T10:49:11.574Z,50.56
2022-08-22T10:50:11.528Z,51.54
2022-08-22T10:51:10.810Z,51.75
2022-08-22T10:52:15.840Z,50.63
2022-08-22T10:53:10.786Z,50.04
2022-08-22T10:54:10.780Z,49.32
2022-08-22T10:55:10.777Z,49.02
2022-08-22T10:56:10.757Z,49.52
2022-08-22T10:57:10.762Z,47.94
2022-08-22T10:58:10.771Z,46.23
2022-08-22T10:59:10.723Z,46.23
2022-08-22T11:00:10.715Z,45.52
2022-08-22T11:01:37.845Z,46.81
2022-08-22T11:02:11.716Z,46.22
2022-08-22T11:03:14.131Z,45.92
2022-08-22T11:04:12.286Z,45.13
2022-08-22T11:05:10.667Z,45.23
2022-08-22T11:06:12.782Z,47.00
2022-08-22T11:07:10.634Z,46.09
2022-08-22T11:08:10.634Z,46.09
2022-08-22T11:09:10.666Z,45.97
2022-08-22T11:10:10.610Z,45.57
2022-08-22T11:11:10.622Z,45.38
2022-08-22T11:12:10.599Z,44.89
2022-08-22T11:13:10.583Z,47.25
2022-08-22T11:14:10.570Z,47.03
2022-08-22T11:15:10.989Z,44.59
2022-08-22T11:16:13.554Z,44.10
2022-08-22T11:17:28.799Z,43.90
2022-08-22T11:18:12.996Z,44.42
2022-08-22T11:19:15.397Z,44.81
2022-08-22T11:20:10.510Z,45.40
2022-08-22T11:21:10.497Z,44.26
2022-08-22T11:22:10.482Z,44.93
2022-08-22T11:23:12.511Z,44.14
2022-08-22T11:24:17.180Z,44.14
2022-08-22T11:25:11.469Z,43.84
2022-08-22T11:26:11.455Z,45.13
2022-08-22T11:27:12.987Z,45.72
2022-08-22T11:28:10.474Z,46.29
2022-08-22T11:29:13.825Z,48.36
2022-08-22T11:30:10.408Z,46.11
2022-08-22T11:31:13.406Z,45.52
2022-08-22T11:32:10.403Z,44.73
2022-08-22T11:33:10.365Z,44.36
2022-08-22T11:34:10.367Z,44.54
2022-08-22T11:35:10.390Z,44.83
2022-08-22T11:36:10.338Z,44.64
2022-08-22T11:37:11.493Z,45.13
2022-08-22T11:38:11.103Z,45.13
2022-08-22T11:39:18.347Z,44.46
2022-08-22T11:40:11.681Z,44.93
2022-08-22T11:41:10.288Z,44.83
2022-08-22T11:42:10.280Z,44.93
2022-08-22T11:43:11.987Z,45.42
2022-08-22T11:44:10.254Z,43.69
2022-08-22T11:45:11.646Z,44.31
2022-08-22T11:46:13.234Z,44.82
2022-08-22T11:47:10.254Z,46.12
2022-08-22T11:48:10.209Z,45.12
2022-08-22T11:49:10.228Z,45.98
2022-08-22T11:50:13.716Z,45.79
2022-08-22T11:51:13.257Z,45.96
2022-08-22T11:52:10.175Z,45.86
2022-08-22T11:53:10.172Z,43.37
2022-08-22T11:54:10.177Z,41.89
2022-08-22T11:55:10.146Z,42.08
2022-08-22T11:56:10.451Z,42.85
2022-08-22T11:57:10.128Z,45.60
2022-08-22T11:58:10.118Z,43.31
2022-08-22T11:59:10.188Z,42.99
2022-08-22T12:00:10.086Z,42.40
2022-08-22T12:01:17.269Z,43.59
2022-08-22T12:02:10.130Z,44.69
2022-08-22T12:03:10.060Z,44.49
2022-08-22T12:04:10.186Z,43.60
2022-08-22T12:05:10.039Z,43.51
2022-08-22T12:06:10.029Z,43.62
2022-08-22T12:07:10.033Z,43.33
2022-08-22T12:08:11.258Z,43.60
2022-08-22T12:09:09.995Z,42.74
2022-08-22T12:10:13.789Z,43.13
2022-08-22T12:11:09.983Z,42.26
2022-08-22T12:12:09.963Z,43.13
2022-08-22T12:13:09.969Z,43.23
2022-08-22T12:14:09.943Z,42.24
2022-08-22T12:15:09.959Z,41.75
2022-08-22T12:16:12.935Z,41.55
2022-08-22T12:17:09.925Z,42.44
2022-08-22T12:18:10.897Z,42.46
2022-08-22T12:19:09.887Z,41.77
2022-08-22T12:20:17.047Z,41.28
2022-08-22T12:21:09.909Z,40.19
2022-08-22T12:22:09.867Z,41.08
2022-08-22T12:23:09.848Z,41.28
2022-08-22T12:24:11.328Z,40.56
2022-08-22T12:25:09.819Z,40.07
2022-08-22T12:26:10.941Z,39.09
2022-08-22T12:27:09.815Z,39.28
2022-08-22T12:28:09.820Z,40.07
2022-08-22T12:29:15.641Z,39.87
2022-08-22T12:30:13.772Z,40.35
2022-08-22T12:31:12.767Z,40.15
2022-08-22T12:32:10.170Z,39.95
2022-08-22T12:33:09.770Z,39.86
2022-08-22T12:34:09.763Z,39.65
2022-08-22T12:35:13.810Z,39.48
2022-08-22T12:36:17.776Z,40.76
2022-08-22T12:37:09.703Z,41.16
2022-08-22T12:38:28.149Z,40.94
2022-08-22T12:39:10.725Z,40.74
2022-08-22T12:40:09.712Z,40.35
2022-08-22T12:41:09.665Z,39.56
2022-08-22T12:42:10.658Z,39.86
2022-08-22T12:43:09.637Z,41.12
2022-08-22T12:44:12.567Z,40.23
2022-08-22T12:45:09.638Z,40.82
2022-08-22T12:46:13.024Z,40.62
2022-08-22T12:47:09.619Z,40.33
2022-08-22T12:48:09.597Z,40.13
2022-08-22T12:49:09.594Z,39.25
2022-08-22T12:50:09.573Z,39.94
2022-08-22T12:51:17.211Z,38.77
2022-08-22T12:52:09.551Z,39.36
2022-08-22T12:53:09.558Z,37.98
2022-08-22T12:54:09.531Z,38.37
2022-08-22T12:56:10.213Z,39.97
2022-08-22T12:57:10.549Z,40.15
2022-08-22T12:58:09.495Z,39.76
2022-08-22T12:59:09.500Z,39.65
2022-08-22T13:00:09.490Z,39.86
2022-08-22T13:01:12.538Z,39.54
2022-08-22T13:02:09.468Z,39.15
2022-08-22T13:03:09.614Z,39.94
2022-08-22T13:04:09.437Z,38.56
2022-08-22T13:05:10.437Z,38.35
2022-08-22T13:06:13.768Z,37.96
2022-08-22T13:07:09.389Z,38.26
2022-08-22T13:08:09.627Z,39.42
2022-08-22T13:09:09.958Z,39.92
2022-08-22T13:10:09.363Z,38.43
2022-08-22T13:11:09.944Z,39.92
2022-08-22T13:12:09.343Z,39.01
2022-08-22T13:13:12.245Z,38.14
2022-08-22T13:14:18.212Z,38.83
2022-08-22T13:15:10.911Z,39.12
2022-08-22T13:16:12.311Z,39.62
2022-08-22T13:17:10.703Z,39.32
2022-08-22T13:18:28.669Z,38.83
2022-08-22T13:19:13.785Z,39.03
2022-08-22T13:20:09.298Z,38.43
2022-08-22T13:21:13.974Z,38.43
2022-08-22T13:22:09.251Z,38.24
2022-08-22T13:23:12.439Z,38.34
2022-08-22T13:24:10.515Z,39.03
2022-08-22T13:25:09.236Z,38.93
2022-08-22T13:26:09.208Z,39.12
2022-08-22T13:27:10.205Z,38.43
2022-08-22T13:28:09.188Z,38.71
2022-08-22T13:29:25.651Z,37.24
2022-08-22T13:30:12.475Z,38.43
2022-08-22T13:31:12.178Z,38.43
2022-08-22T13:32:09.160Z,39.12
2022-08-22T13:33:09.129Z,39.81
2022-08-22T13:34:09.131Z,38.65
2022-08-22T13:35:09.141Z,39.44
2022-08-22T13:36:10.954Z,39.94
2022-08-22T13:37:10.097Z,39.64
2022-08-22T13:38:12.125Z,39.94
2022-08-22T13:39:09.073Z,38.26
2022-08-22T13:40:09.295Z,38.14
2022-08-22T13:41:09.054Z,38.06
2022-08-22T13:42:14.538Z,38.26
2022-08-22T13:43:09.064Z,38.56
2022-08-22T13:44:09.031Z,38.64
2022-08-22T13:45:09.067Z,38.43
2022-08-22T13:46:12.013Z,39.23
2022-08-22T13:47:14.690Z,38.83
2022-08-22T13:48:09.068Z,38.02
2022-08-22T13:49:08.988Z,37.43
2022-08-22T13:50:09.120Z,37.83
2022-08-22T13:51:08.964Z,38.51
2022-08-22T13:52:14.508Z,38.02
2022-08-22T13:53:09.949Z,38.71
2022-08-22T13:54:11.077Z,37.73
2022-08-22T13:55:12.628Z,38.42
2022-08-22T13:56:15.978Z,37.24
2022-08-22T13:57:08.903Z,37.14
2022-08-22T13:58:11.338Z,38.04
2022-08-22T13:59:09.688Z,39.23
2022-08-22T14:00:10.030Z,39.23
2022-08-22T14:01:12.927Z,38.83
2022-08-22T14:02:15.146Z,39.12
2022-08-22T14:03:09.645Z,37.95
2022-08-22T14:04:28.502Z,37.04
2022-08-22T14:05:09.814Z,36.84
2022-08-22T14:06:35.367Z,37.14
2022-08-22T14:07:09.855Z,36.07
2022-08-22T14:08:12.463Z,37.35
2022-08-22T14:09:08.788Z,38.04
2022-08-22T14:10:15.271Z,38.04
2022-08-22T14:11:08.765Z,37.05
2022-08-22T14:12:12.203Z,37.43
2022-08-22T14:13:08.745Z,38.22
2022-08-22T14:14:08.739Z,37.83
2022-08-22T14:15:08.717Z,37.91
2022-08-22T14:16:11.708Z,37.61
2022-08-22T14:17:08.711Z,37.40
2022-08-22T14:18:08.722Z,36.61
2022-08-22T14:19:08.684Z,37.49
2022-08-22T14:20:11.101Z,37.20
2022-08-22T14:21:09.664Z,36.61
2022-08-22T14:22:08.652Z,37.81
2022-08-22T14:23:08.845Z,37.22
2022-08-22T14:24:08.630Z,37.41
2022-08-22T14:25:08.640Z,37.02
2022-08-22T14:26:08.613Z,36.82
2022-08-22T14:27:08.594Z,37.12
2022-08-22T14:28:09.383Z,37.41
2022-08-22T14:29:08.594Z,36.82
2022-08-22T14:30:08.575Z,37.32
2022-08-22T14:31:13.716Z,37.61
2022-08-22T14:32:08.756Z,38.22
2022-08-22T14:33:08.555Z,39.60
2022-08-22T14:34:08.683Z,38.91
2022-08-22T14:35:10.756Z,38.91
2022-08-22T14:36:08.526Z,39.60
2022-08-22T14:37:08.513Z,39.70
2022-08-22T14:38:17.097Z,39.40
2022-08-22T14:39:08.487Z,39.01
2022-08-22T14:40:08.551Z,39.01
2022-08-22T14:41:08.496Z,39.32
2022-08-22T14:42:09.968Z,38.64
2022-08-22T14:43:08.471Z,38.83
2022-08-22T14:44:08.433Z,39.40
2022-08-22T14:45:08.430Z,38.64
2022-08-22T14:46:11.433Z,38.75
2022-08-22T14:47:32.625Z,40.07
2022-08-22T14:48:14.535Z,40.48
2022-08-22T14:49:10.707Z,40.66
2022-08-22T14:50:08.374Z,40.47
2022-08-22T14:51:08.619Z,40.35
2022-08-22T14:52:08.857Z,39.46
2022-08-22T14:53:09.616Z,39.65
2022-08-22T14:54:08.336Z,39.34
2022-08-22T14:55:08.856Z,39.15
2022-08-22T14:56:08.315Z,39.64
2022-08-22T14:57:10.271Z,40.03
2022-08-22T14:58:08.314Z,40.03
2022-08-22T14:59:08.278Z,40.70
2022-08-22T15:00:08.279Z,39.92
2022-08-22T15:01:11.261Z,39.92
2022-08-22T15:02:08.345Z,39.79
2022-08-22T15:03:08.269Z,40.09
2022-08-22T15:04:08.240Z,40.00
2022-08-22T15:05:09.230Z,39.12
2022-08-22T15:06:08.210Z,39.92
2022-08-22T15:07:08.266Z,40.90
2022-08-22T15:08:08.191Z,40.23
2022-08-22T15:09:08.405Z,41.22
2022-08-22T15:10:08.171Z,41.81
2022-08-22T15:11:08.173Z,40.82
2022-08-22T15:12:08.155Z,40.11
2022-08-22T15:13:08.177Z,40.31
2022-08-22T15:14:08.125Z,39.72
2022-08-22T15:15:09.311Z,39.23
2022-08-22T15:16:11.106Z,40.19
2022-08-22T15:17:08.121Z,39.50
2022-08-22T15:18:08.127Z,38.51
2022-08-22T15:19:08.087Z,38.54
2022-08-22T15:20:08.068Z,39.23
2022-08-22T15:21:08.739Z,39.32
2022-08-22T15:22:08.049Z,40.11
2022-08-22T15:23:09.808Z,39.81
2022-08-22T15:24:08.030Z,39.03